createdAt,value
2019-03-29T00:00:21.369Z,85.04
2019-03-29T00:01:21.355Z,84.89
2019-03-29T00:02:21.342Z,85.33
2019-03-29T00:03:21.340Z,85.85
2019-03-29T00:04:21.317Z,85.56
2019-03-29T00:05:21.302Z,85.56
2019-03-29T00:06:21.291Z,85.52
2019-03-29T00:07:21.281Z,85.52
2019-03-29T00:08:21.265Z,85.33
2019-03-29T00:09:21.252Z,85.66
2019-03-29T00:10:21.241Z,85.99
2019-03-29T00:11:21.227Z,86.28
2019-03-29T00:12:21.219Z,85.99
2019-03-29T00:13:21.202Z,86.38
2019-03-29T00:14:23.521Z,86.09
2019-03-29T00:15:21.178Z,86.28
2019-03-29T00:16:21.163Z,86.66
2019-03-29T00:17:21.150Z,86.66
2019-03-29T00:18:21.138Z,86.76
2019-03-29T00:19:21.125Z,87.23
2019-03-29T00:20:21.113Z,87.13
2019-03-29T00:21:21.101Z,87.13
2019-03-29T00:22:21.088Z,87.32
2019-03-29T00:23:21.073Z,87.42
2019-03-29T00:24:21.060Z,87.80
2019-03-29T00:25:21.052Z,87.52
2019-03-29T00:26:21.038Z,87.99
2019-03-29T00:27:21.025Z,87.99
2019-03-29T00:28:21.011Z,87.90
2019-03-29T00:29:20.995Z,88.37
2019-03-29T00:30:21.414Z,88.09
2019-03-29T00:31:20.970Z,88.37
2019-03-29T00:32:20.964Z,88.46
2019-03-29T00:33:20.945Z,89.23
2019-03-29T00:34:20.931Z,89.14
2019-03-29T00:35:20.919Z,89.23
2019-03-29T00:36:20.907Z,89.14
2019-03-29T00:37:20.893Z,89.42
2019-03-29T00:38:20.879Z,89.61
2019-03-29T00:39:20.869Z,89.42
2019-03-29T00:40:20.854Z,89.80
2019-03-29T00:41:20.842Z,89.89
2019-03-29T00:42:20.829Z,90.08
2019-03-29T00:43:20.816Z,90.66
2019-03-29T00:44:20.802Z,90.37
2019-03-29T00:45:20.790Z,90.47
2019-03-29T00:46:20.777Z,91.32
2019-03-29T00:47:20.765Z,91.13
2019-03-29T00:48:21.240Z,91.32
2019-03-29T00:49:20.739Z,91.70
2019-03-29T00:50:20.769Z,91.61
2019-03-29T00:51:20.714Z,91.61
2019-03-29T00:52:20.700Z,91.42
2019-03-29T00:53:20.685Z,91.70
2019-03-29T00:54:20.672Z,91.80
2019-03-29T00:55:20.950Z,92.65
2019-03-29T00:56:20.645Z,92.75
2019-03-29T00:57:20.633Z,92.46
2019-03-29T00:58:20.620Z,93.13
2019-03-29T00:59:20.606Z,93.13
2019-03-29T01:00:20.594Z,93.04
2019-03-29T01:01:20.580Z,93.51
2019-03-29T01:02:20.565Z,93.32
2019-03-29T01:03:20.554Z,93.70
2019-03-29T01:04:20.539Z,93.89
2019-03-29T01:05:20.974Z,93.51
2019-03-29T01:06:20.513Z,93.41
2019-03-29T01:07:20.500Z,93.51
2019-03-29T01:08:20.487Z,93.51
2019-03-29T01:09:20.473Z,93.79
2019-03-29T01:10:20.459Z,93.60
2019-03-29T01:11:20.446Z,93.51
2019-03-29T01:12:20.435Z,94.03
2019-03-29T01:13:20.420Z,94.37
2019-03-29T01:14:20.407Z,94.46
2019-03-29T01:15:20.397Z,94.42
2019-03-29T01:16:20.381Z,94.13
2019-03-29T01:17:20.381Z,94.89
2019-03-29T01:18:20.354Z,94.70
2019-03-29T01:19:20.342Z,94.22
2019-03-29T01:20:20.385Z,94.32
2019-03-29T01:21:20.324Z,94.22
2019-03-29T01:22:20.301Z,94.60
2019-03-29T01:23:20.289Z,94.79
2019-03-29T01:24:20.277Z,94.79
2019-03-29T01:25:20.263Z,95.27
2019-03-29T01:26:20.249Z,94.79
2019-03-29T01:27:20.235Z,95.46
2019-03-29T01:28:20.223Z,95.46
2019-03-29T01:29:20.206Z,95.65
2019-03-29T01:30:20.194Z,95.65
2019-03-29T01:31:20.181Z,95.94
2019-03-29T01:32:20.168Z,96.50
2019-03-29T01:33:20.154Z,96.50
2019-03-29T01:34:20.141Z,96.69
2019-03-29T01:35:20.129Z,96.41
2019-03-29T01:36:20.116Z,96.89
2019-03-29T01:37:20.146Z,96.79
2019-03-29T01:38:22.164Z,96.98
2019-03-29T01:39:20.074Z,96.69
2019-03-29T01:40:20.061Z,97.36
2019-03-29T01:41:20.057Z,97.17
2019-03-29T01:42:20.033Z,97.17
2019-03-29T01:43:20.022Z,97.55
2019-03-29T01:44:20.008Z,97.64
2019-03-29T01:45:20.057Z,97.93
2019-03-29T01:46:19.980Z,98.22
2019-03-29T01:47:19.970Z,98.41
2019-03-29T01:48:19.956Z,98.22
2019-03-29T01:49:19.939Z,98.22
2019-03-29T01:50:19.926Z,98.50
2019-03-29T01:51:19.918Z,98.41
2019-03-29T01:52:20.019Z,99.07
2019-03-29T01:53:19.887Z,99.74
2019-03-29T01:54:19.872Z,99.93
2019-03-29T01:55:19.860Z,99.99
2019-03-29T01:56:19.849Z,99.99
2019-03-29T01:57:19.832Z,99.99
2019-03-29T01:58:19.822Z,99.99
2019-03-29T01:59:19.805Z,99.99
2019-03-29T02:00:19.793Z,99.99
2019-03-29T02:01:19.778Z,99.99
2019-03-29T02:02:20.274Z,99.99
2019-03-29T02:03:19.753Z,99.99
2019-03-29T02:04:19.738Z,99.99
2019-03-29T02:05:19.728Z,99.99
2019-03-29T02:06:19.894Z,99.99
2019-03-29T02:09:00.754Z,99.99
2019-03-29T02:10:00.742Z,99.99
2019-03-29T02:11:00.725Z,99.99
2019-03-29T02:12:00.716Z,99.99
2019-03-29T02:13:00.700Z,99.99
2019-03-29T02:14:00.685Z,99.99
2019-03-29T02:15:00.672Z,99.99
2019-03-29T02:16:00.661Z,99.99
2019-03-29T02:17:00.644Z,99.99
2019-03-29T02:18:00.632Z,99.99
2019-03-29T02:19:00.617Z,99.99
2019-03-29T02:20:00.604Z,99.99
2019-03-29T02:21:00.592Z,99.99
2019-03-29T02:22:00.577Z,99.99
2019-03-29T02:23:00.565Z,99.99
2019-03-29T02:24:00.552Z,99.99
2019-03-29T02:25:00.540Z,99.99
2019-03-29T02:26:00.524Z,99.99
2019-03-29T02:27:00.964Z,99.99
2019-03-29T02:28:00.499Z,99.99
2019-03-29T02:29:00.483Z,99.99
2019-03-29T02:30:00.623Z,99.99
2019-03-29T02:31:00.456Z,99.99
2019-03-29T02:32:00.442Z,99.99
2019-03-29T02:33:00.437Z,99.99
2019-03-29T02:34:00.418Z,99.99
2019-03-29T02:35:00.477Z,99.99
2019-03-29T02:36:00.397Z,99.99
2019-03-29T02:37:02.025Z,99.99
2019-03-29T02:38:00.364Z,99.99
2019-03-29T02:39:00.348Z,99.99
2019-03-29T02:40:00.689Z,99.99
2019-03-29T02:41:00.321Z,99.99
2019-03-29T02:42:00.309Z,99.99
2019-03-29T02:43:00.295Z,99.99
2019-03-29T02:44:00.283Z,99.99
2019-03-29T02:45:00.601Z,99.99
2019-03-29T02:46:00.255Z,99.99
2019-03-29T02:47:00.240Z,99.99
2019-03-29T02:48:00.371Z,99.99
2019-03-29T02:49:00.217Z,99.99
2019-03-29T02:50:00.496Z,99.99
2019-03-29T02:51:00.197Z,99.99
2019-03-29T02:52:00.183Z,99.99
2019-03-29T02:53:00.165Z,99.99
2019-03-29T02:54:00.148Z,99.99
2019-03-29T02:55:00.204Z,99.99
2019-03-29T02:56:00.120Z,99.99
2019-03-29T02:57:00.109Z,99.99
2019-03-29T02:58:00.099Z,99.99
2019-03-29T02:59:00.083Z,99.99
2019-03-29T03:00:00.546Z,99.99
2019-03-29T03:01:00.057Z,99.99
2019-03-29T03:02:00.041Z,99.99
2019-03-29T03:03:00.027Z,99.99
2019-03-29T03:04:00.012Z,99.99
2019-03-29T03:05:00.005Z,99.99
2019-03-29T03:05:59.988Z,99.99
2019-03-29T03:06:59.976Z,99.99
2019-03-29T03:07:59.963Z,99.99
2019-03-29T03:09:12.972Z,99.99
2019-03-29T03:09:59.941Z,99.99
2019-03-29T03:10:59.935Z,99.99
2019-03-29T03:11:59.908Z,99.99
2019-03-29T03:12:59.894Z,99.99
2019-03-29T03:13:59.881Z,99.99
2019-03-29T03:14:59.868Z,99.99
2019-03-29T03:15:59.857Z,99.99
2019-03-29T03:16:59.843Z,99.99
2019-03-29T03:17:59.827Z,99.99
2019-03-29T03:18:59.825Z,99.99
2019-03-29T03:19:59.801Z,99.99
2019-03-29T03:20:59.788Z,99.99
2019-03-29T03:21:59.778Z,99.99
2019-03-29T03:22:59.760Z,99.99
2019-03-29T03:23:59.749Z,99.99
2019-03-29T03:24:59.736Z,99.99
2019-03-29T03:25:59.727Z,99.99
2019-03-29T03:26:59.709Z,99.99
2019-03-29T03:27:59.697Z,99.99
2019-03-29T03:28:59.689Z,99.99
2019-03-29T03:29:59.748Z,99.99
2019-03-29T03:30:59.662Z,99.99
2019-03-29T03:31:59.646Z,99.99
2019-03-29T03:32:59.631Z,99.99
2019-03-29T03:33:59.616Z,99.99
2019-03-29T03:34:59.608Z,99.99
2019-03-29T03:35:59.598Z,99.99
2019-03-29T03:36:59.581Z,99.99
2019-03-29T03:37:59.561Z,99.99
2019-03-29T03:38:59.564Z,99.99
2019-03-29T03:39:59.538Z,99.99
2019-03-29T03:40:59.525Z,99.99
2019-03-29T03:41:59.507Z,99.99
2019-03-29T03:42:59.495Z,99.99
2019-03-29T03:43:59.479Z,99.99
2019-03-29T03:44:59.468Z,99.99
2019-03-29T03:45:59.458Z,99.99
2019-03-29T03:46:59.451Z,99.99
2019-03-29T03:47:59.427Z,99.99
2019-03-29T03:48:59.422Z,99.99
2019-03-29T03:50:01.153Z,99.99
2019-03-29T03:50:59.387Z,99.99
2019-03-29T03:51:59.376Z,99.99
2019-03-29T03:52:59.358Z,99.99
2019-03-29T03:53:59.344Z,99.99
2019-03-29T03:54:59.333Z,99.99
2019-03-29T03:55:59.323Z,99.99
2019-03-29T03:56:59.308Z,99.99
2019-03-29T03:57:59.293Z,99.99
2019-03-29T03:58:59.298Z,99.99
2019-03-29T03:59:59.265Z,99.99
2019-03-29T04:00:59.284Z,99.99
2019-03-29T04:01:59.243Z,99.99
2019-03-29T04:02:59.224Z,99.99
2019-03-29T04:03:59.209Z,99.99
2019-03-29T04:04:59.196Z,99.99
2019-03-29T04:05:59.195Z,99.99
2019-03-29T04:06:59.172Z,99.99
2019-03-29T04:07:59.154Z,99.99
2019-03-29T04:08:59.144Z,99.99
2019-03-29T04:09:59.125Z,99.99
2019-03-29T04:10:59.127Z,99.99
2019-03-29T04:11:59.099Z,99.99
2019-03-29T04:12:59.093Z,99.99
2019-03-29T04:13:59.169Z,99.99
2019-03-29T04:14:59.059Z,99.99
2019-03-29T04:15:59.045Z,99.99
2019-03-29T04:16:59.035Z,99.99
2019-03-29T04:17:59.016Z,99.99
2019-03-29T04:18:59.003Z,99.99
2019-03-29T04:19:58.991Z,99.99
2019-03-29T04:20:58.986Z,99.99
2019-03-29T04:21:58.964Z,99.99
2019-03-29T04:22:58.950Z,99.99
2019-03-29T04:23:58.933Z,99.99
2019-03-29T04:24:58.921Z,99.99
2019-03-29T04:25:58.908Z,99.99
2019-03-29T04:26:58.891Z,99.99
2019-03-29T04:27:58.878Z,99.99
2019-03-29T04:29:04.901Z,99.99
2019-03-29T04:29:58.850Z,99.99
2019-03-29T04:30:58.839Z,99.99
2019-03-29T04:31:58.825Z,99.99
2019-03-29T04:32:58.815Z,99.99
2019-03-29T04:33:58.792Z,99.99
2019-03-29T04:34:58.799Z,99.99
2019-03-29T04:35:58.769Z,99.99
2019-03-29T04:36:58.754Z,99.99
2019-03-29T04:37:58.738Z,99.99
2019-03-29T04:38:58.724Z,99.99
2019-03-29T04:40:06.864Z,99.99
2019-03-29T04:40:58.701Z,99.99
2019-03-29T04:41:58.682Z,99.99
2019-03-29T04:42:58.671Z,99.99
2019-03-29T04:43:58.655Z,99.99
2019-03-29T04:44:59.995Z,99.99
2019-03-29T04:45:58.629Z,99.99
2019-03-29T04:46:58.617Z,99.99
2019-03-29T04:47:58.603Z,99.99
2019-03-29T04:48:58.589Z,99.99
2019-03-29T04:49:58.575Z,99.99
2019-03-29T04:50:58.563Z,99.99
2019-03-29T04:51:58.546Z,99.99
2019-03-29T04:52:58.533Z,99.99
2019-03-29T04:53:58.518Z,99.99
2019-03-29T04:54:58.504Z,99.99
2019-03-29T04:55:58.490Z,99.99
2019-03-29T04:56:58.475Z,99.99
2019-03-29T04:57:58.460Z,99.99
2019-03-29T04:58:58.451Z,99.99
2019-03-29T04:59:58.436Z,99.99
2019-03-29T05:00:58.466Z,99.99
2019-03-29T05:01:58.414Z,99.99
2019-03-29T05:02:58.394Z,99.99
2019-03-29T05:03:58.379Z,99.99
2019-03-29T05:04:58.368Z,99.99
2019-03-29T05:05:58.355Z,99.99
2019-03-29T05:06:58.337Z,99.99
2019-03-29T05:07:58.322Z,99.99
2019-03-29T05:08:58.309Z,99.99
2019-03-29T05:09:58.297Z,99.99
2019-03-29T05:10:58.282Z,99.99
2019-03-29T05:11:58.271Z,99.99
2019-03-29T05:12:59.686Z,99.99
2019-03-29T05:13:58.242Z,99.99
2019-03-29T05:14:58.227Z,99.99
2019-03-29T05:15:58.217Z,99.99
2019-03-29T05:16:58.206Z,99.99
2019-03-29T05:17:58.187Z,99.99
2019-03-29T05:18:58.174Z,99.99
2019-03-29T05:19:58.161Z,99.99
2019-03-29T05:20:58.144Z,99.99
2019-03-29T05:21:58.128Z,99.99
2019-03-29T05:22:58.125Z,99.99
2019-03-29T05:23:58.105Z,99.99
2019-03-29T05:24:58.091Z,99.99
2019-03-29T05:25:58.076Z,99.99
2019-03-29T05:26:58.060Z,99.99
2019-03-29T05:27:58.054Z,99.99
2019-03-29T05:28:58.034Z,99.99
2019-03-29T05:29:58.020Z,99.99
2019-03-29T05:30:58.009Z,99.99
2019-03-29T05:31:57.992Z,99.99
2019-03-29T05:32:57.976Z,99.99
2019-03-29T05:33:57.964Z,99.99
2019-03-29T05:34:57.948Z,99.99
2019-03-29T05:35:57.935Z,99.99
2019-03-29T05:36:58.575Z,99.99
2019-03-29T05:37:57.909Z,99.99
2019-03-29T05:38:57.892Z,99.99
2019-03-29T05:39:57.880Z,99.99
2019-03-29T05:40:57.867Z,99.99
2019-03-29T05:41:57.852Z,99.99
2019-03-29T05:42:57.839Z,99.99
2019-03-29T05:43:57.826Z,99.99
2019-03-29T05:44:57.811Z,99.99
2019-03-29T05:45:57.799Z,99.99
2019-03-29T05:46:57.785Z,99.99
2019-03-29T05:47:57.773Z,99.99
2019-03-29T05:48:57.760Z,99.99
2019-03-29T05:49:57.742Z,99.99
2019-03-29T05:50:57.730Z,99.99
2019-03-29T05:51:57.714Z,99.99
2019-03-29T05:52:57.702Z,99.99
2019-03-29T05:53:57.687Z,99.99
2019-03-29T05:54:57.675Z,99.99
2019-03-29T05:55:57.661Z,99.99
2019-03-29T05:56:57.651Z,99.99
2019-03-29T05:57:57.720Z,99.99
2019-03-29T05:58:57.616Z,99.99
2019-03-29T05:59:57.603Z,99.99
2019-03-29T06:00:57.594Z,99.99
2019-03-29T06:01:57.575Z,99.99
2019-03-29T06:02:57.564Z,99.99
2019-03-29T06:03:57.549Z,99.99
2019-03-29T06:04:57.536Z,99.99
2019-03-29T06:05:57.522Z,99.99
2019-03-29T06:06:57.510Z,99.99
2019-03-29T06:07:57.492Z,99.99
2019-03-29T06:08:57.489Z,99.99
2019-03-29T06:09:57.467Z,99.99
2019-03-29T06:10:57.452Z,99.99
2019-03-29T06:11:57.438Z,99.99
2019-03-29T06:12:57.431Z,99.99
2019-03-29T06:13:57.412Z,99.99
2019-03-29T06:14:57.396Z,99.99
2019-03-29T06:15:57.383Z,99.99
2019-03-29T06:16:57.371Z,99.99
2019-03-29T06:17:57.360Z,99.99
2019-03-29T06:18:57.346Z,99.99
2019-03-29T06:19:57.333Z,99.99
2019-03-29T06:20:57.318Z,99.99
2019-03-29T06:21:57.306Z,99.99
2019-03-29T06:22:57.296Z,99.99
2019-03-29T06:23:57.280Z,99.99
2019-03-29T06:24:57.266Z,99.99
2019-03-29T06:25:57.273Z,99.99
2019-03-29T06:26:57.239Z,99.99
2019-03-29T06:27:57.222Z,99.99
2019-03-29T06:28:57.215Z,99.99
2019-03-29T06:29:57.199Z,99.99
2019-03-29T06:30:57.186Z,99.99
2019-03-29T06:31:57.174Z,99.99
2019-03-29T06:32:57.160Z,99.99
2019-03-29T06:33:57.146Z,99.99
2019-03-29T06:34:57.132Z,99.99
2019-03-29T06:35:57.127Z,99.99
2019-03-29T06:36:57.113Z,99.99
2019-03-29T06:37:57.097Z,99.99
2019-03-29T06:38:57.088Z,99.99
2019-03-29T06:39:57.110Z,99.99
2019-03-29T06:41:03.018Z,99.99
2019-03-29T06:41:57.049Z,99.99
2019-03-29T06:42:57.036Z,99.99
2019-03-29T06:43:57.023Z,99.99
2019-03-29T06:44:57.014Z,99.99
2019-03-29T06:45:57.000Z,99.99
2019-03-29T06:46:56.989Z,99.99
2019-03-29T06:47:56.978Z,99.99
2019-03-29T06:48:56.965Z,99.99
2019-03-29T06:49:56.949Z,99.74
2019-03-29T06:50:56.942Z,98.27
2019-03-29T06:51:56.930Z,98.27
2019-03-29T06:52:56.918Z,97.31
2019-03-29T06:53:56.904Z,96.65
2019-03-29T06:54:56.889Z,95.89
2019-03-29T06:55:59.305Z,95.22
2019-03-29T06:56:56.869Z,94.08
2019-03-29T06:57:56.856Z,94.13
2019-03-29T06:58:56.847Z,93.89
2019-03-29T06:59:56.839Z,92.60
2019-03-29T07:00:56.826Z,92.32
2019-03-29T07:01:56.812Z,92.41
2019-03-29T07:02:56.799Z,91.55
2019-03-29T07:03:56.789Z,91.46
2019-03-29T07:04:56.778Z,90.70
2019-03-29T07:05:56.767Z,90.12
2019-03-29T07:06:56.755Z,89.31
2019-03-29T07:07:56.740Z,89.22
2019-03-29T07:08:56.732Z,89.22
2019-03-29T07:09:56.720Z,88.84
2019-03-29T07:10:56.721Z,88.64
2019-03-29T07:11:56.697Z,88.64
2019-03-29T07:12:56.737Z,88.64
2019-03-29T07:13:58.144Z,88.36
2019-03-29T07:14:56.666Z,87.60
2019-03-29T07:15:56.653Z,87.31
2019-03-29T07:16:56.643Z,86.83
2019-03-29T07:17:56.632Z,86.26
2019-03-29T07:18:56.621Z,85.73
2019-03-29T07:19:56.609Z,86.21
2019-03-29T07:20:56.601Z,85.93
2019-03-29T07:21:56.590Z,85.83
2019-03-29T07:22:56.580Z,84.97
2019-03-29T07:23:56.569Z,84.78
2019-03-29T07:24:56.557Z,84.30
2019-03-29T07:25:56.707Z,84.78
2019-03-29T07:26:56.534Z,85.06
2019-03-29T07:27:56.526Z,84.88
2019-03-29T07:28:56.514Z,84.88
2019-03-29T07:29:56.505Z,84.88
2019-03-29T07:30:56.498Z,84.88
2019-03-29T07:31:56.486Z,84.88
2019-03-29T07:32:56.473Z,85.35
2019-03-29T07:33:56.464Z,84.88
2019-03-29T07:34:56.451Z,85.50
2019-03-29T07:35:56.441Z,85.69
2019-03-29T07:36:56.432Z,86.93
2019-03-29T07:37:56.423Z,87.60
2019-03-29T07:38:56.407Z,88.55
2019-03-29T07:39:56.397Z,88.55
2019-03-29T07:40:56.391Z,88.22
2019-03-29T07:41:56.379Z,88.31
2019-03-29T07:42:56.369Z,89.46
2019-03-29T07:43:56.359Z,88.89
2019-03-29T07:44:56.353Z,89.46
2019-03-29T07:45:56.340Z,89.75
2019-03-29T07:46:56.329Z,89.75
2019-03-29T07:47:56.316Z,90.41
2019-03-29T07:48:56.305Z,90.22
2019-03-29T07:49:56.292Z,90.60
2019-03-29T07:50:56.285Z,88.89
2019-03-29T07:51:56.272Z,89.07
2019-03-29T07:52:56.264Z,88.89
2019-03-29T07:53:56.250Z,89.17
2019-03-29T07:54:56.243Z,90.41
2019-03-29T07:55:56.230Z,89.55
2019-03-29T07:56:56.220Z,89.75
2019-03-29T07:57:56.207Z,89.46
2019-03-29T07:58:56.200Z,89.07
2019-03-29T07:59:56.191Z,89.75
2019-03-29T08:00:56.175Z,89.75
2019-03-29T08:01:56.163Z,89.55
2019-03-29T08:02:56.156Z,88.89
2019-03-29T08:03:56.143Z,89.36
2019-03-29T08:04:56.133Z,89.17
2019-03-29T08:05:56.122Z,88.22
2019-03-29T08:06:56.113Z,88.31
2019-03-29T08:07:56.100Z,87.93
2019-03-29T08:08:56.091Z,88.12
2019-03-29T08:09:56.078Z,87.46
2019-03-29T08:10:56.073Z,87.74
2019-03-29T08:11:56.059Z,87.46
2019-03-29T08:12:56.048Z,86.98
2019-03-29T08:13:56.031Z,88.22
2019-03-29T08:14:56.023Z,88.12
2019-03-29T08:15:56.018Z,87.65
2019-03-29T08:16:56.020Z,87.93
2019-03-29T08:17:55.989Z,88.03
2019-03-29T08:18:55.978Z,87.55
2019-03-29T08:20:24.464Z,87.07
2019-03-29T08:20:55.955Z,87.84
2019-03-29T08:21:57.802Z,88.03
2019-03-29T08:22:55.933Z,87.55
2019-03-29T08:23:55.924Z,88.31
2019-03-29T08:24:59.083Z,87.55
2019-03-29T08:25:55.903Z,87.50
2019-03-29T08:26:55.892Z,86.93
2019-03-29T08:27:55.879Z,86.65
2019-03-29T08:28:55.871Z,87.36
2019-03-29T08:29:55.858Z,87.60
2019-03-29T08:30:55.847Z,86.74
2019-03-29T08:31:55.947Z,87.21
2019-03-29T08:32:55.828Z,87.21
2019-03-29T08:33:55.813Z,86.26
2019-03-29T08:34:55.802Z,86.45
2019-03-29T08:35:55.794Z,86.83
2019-03-29T08:36:55.780Z,85.60
2019-03-29T08:37:55.770Z,85.31
2019-03-29T08:38:55.759Z,85.12
2019-03-29T08:39:56.655Z,84.92
2019-03-29T08:40:55.738Z,84.83
2019-03-29T08:42:00.281Z,84.64
2019-03-29T08:42:55.715Z,84.74
2019-03-29T08:43:55.704Z,84.64
2019-03-29T08:44:55.695Z,84.26
2019-03-29T08:45:57.565Z,84.45
2019-03-29T08:46:55.669Z,83.40
2019-03-29T08:47:55.662Z,83.50
2019-03-29T08:48:55.651Z,83.78
2019-03-29T08:49:55.639Z,82.92
2019-03-29T08:50:55.630Z,82.35
2019-03-29T08:51:55.617Z,81.88
2019-03-29T08:52:55.608Z,81.88
2019-03-29T08:53:55.600Z,81.30
2019-03-29T08:54:55.582Z,81.49
2019-03-29T08:55:55.574Z,81.06
2019-03-29T08:56:55.565Z,79.63
2019-03-29T08:57:55.551Z,78.86
2019-03-29T08:58:55.542Z,78.96
2019-03-29T08:59:55.533Z,79.15
2019-03-29T09:00:55.522Z,78.01
2019-03-29T09:01:55.510Z,77.06
2019-03-29T09:02:55.501Z,76.77
2019-03-29T09:04:05.105Z,76.86
2019-03-29T09:04:55.478Z,76.39
2019-03-29T09:05:55.469Z,77.15
2019-03-29T09:06:55.454Z,77.06
2019-03-29T09:07:55.444Z,77.72
2019-03-29T09:08:55.437Z,77.53
2019-03-29T09:09:55.425Z,77.06
2019-03-29T09:10:55.411Z,76.96
2019-03-29T09:11:55.400Z,76.20
2019-03-29T09:12:55.392Z,75.91
2019-03-29T09:13:55.381Z,75.43
2019-03-29T09:14:55.373Z,75.05
2019-03-29T09:15:55.362Z,75.62
2019-03-29T09:16:55.351Z,75.85
2019-03-29T09:17:55.338Z,75.53
2019-03-29T09:18:55.329Z,75.66
2019-03-29T09:19:55.320Z,75.85
2019-03-29T09:20:55.307Z,75.47
2019-03-29T09:21:55.302Z,74.90
2019-03-29T09:22:55.285Z,75.47
2019-03-29T09:23:55.275Z,75.47
2019-03-29T09:24:55.265Z,76.04
2019-03-29T09:25:55.255Z,75.66
2019-03-29T09:26:55.258Z,74.71
2019-03-29T09:27:55.236Z,75.09
2019-03-29T09:28:55.235Z,74.99
2019-03-29T09:29:55.216Z,73.69
2019-03-29T09:30:56.775Z,73.98
2019-03-29T09:31:55.194Z,74.46
2019-03-29T09:32:55.183Z,74.37
2019-03-29T09:33:58.382Z,74.08
2019-03-29T09:34:55.164Z,72.93
2019-03-29T09:35:55.154Z,72.64
2019-03-29T09:36:55.152Z,72.64
2019-03-29T09:37:56.689Z,72.74
2019-03-29T09:38:55.127Z,73.03
2019-03-29T09:39:55.117Z,72.55
2019-03-29T09:40:58.656Z,71.12
2019-03-29T09:41:55.093Z,70.20
2019-03-29T09:43:06.936Z,70.20
2019-03-29T09:43:55.075Z,71.06
2019-03-29T09:44:55.065Z,71.44
2019-03-29T09:45:55.059Z,70.39
2019-03-29T09:46:55.045Z,69.24
2019-03-29T09:47:56.065Z,68.76
2019-03-29T09:48:55.031Z,68.76
2019-03-29T09:49:55.017Z,69.53
2019-03-29T09:50:55.008Z,68.67
2019-03-29T09:51:55.025Z,68.70
2019-03-29T09:52:54.992Z,69.76
2019-03-29T09:53:57.790Z,69.18
2019-03-29T09:54:54.970Z,68.90
2019-03-29T09:55:54.963Z,67.27
2019-03-29T09:56:54.953Z,66.50
2019-03-29T09:57:54.942Z,66.41
2019-03-29T09:58:54.931Z,66.70
2019-03-29T09:59:54.923Z,66.79
2019-03-29T10:00:54.918Z,67.65
2019-03-29T10:01:54.908Z,67.18
2019-03-29T10:02:54.899Z,68.16
2019-03-29T10:03:54.887Z,67.59
2019-03-29T10:04:54.880Z,67.78
2019-03-29T10:05:54.870Z,67.02
2019-03-29T10:06:54.865Z,67.11
2019-03-29T10:07:54.850Z,68.07
2019-03-29T10:08:54.843Z,67.91
2019-03-29T10:09:54.831Z,67.02
2019-03-29T10:10:54.827Z,66.86
2019-03-29T10:11:54.817Z,65.71
2019-03-29T10:12:54.810Z,66.09
2019-03-29T10:13:54.800Z,66.38
2019-03-29T10:14:54.792Z,66.47
2019-03-29T10:15:54.785Z,66.38
2019-03-29T10:16:54.778Z,65.52
2019-03-29T10:17:54.766Z,65.65
2019-03-29T10:18:54.759Z,65.08
2019-03-29T10:19:54.753Z,64.40
2019-03-29T10:20:54.741Z,64.50
2019-03-29T10:21:54.733Z,63.73
2019-03-29T10:22:54.724Z,63.06
2019-03-29T10:23:54.713Z,63.35
2019-03-29T10:24:54.707Z,62.87
2019-03-29T10:25:54.699Z,62.68
2019-03-29T10:26:54.711Z,62.23
2019-03-29T10:27:54.686Z,62.49
2019-03-29T10:28:54.675Z,60.58
2019-03-29T10:29:54.669Z,60.51
2019-03-29T10:30:54.657Z,60.70
2019-03-29T10:31:54.653Z,61.08
2019-03-29T10:32:55.575Z,60.70
2019-03-29T10:33:54.633Z,60.80
2019-03-29T10:34:54.630Z,60.51
2019-03-29T10:35:54.621Z,60.70
2019-03-29T10:36:54.613Z,60.70
2019-03-29T10:37:54.608Z,59.94
2019-03-29T10:38:54.594Z,59.84
2019-03-29T10:39:54.590Z,60.22
2019-03-29T10:40:54.581Z,59.55
2019-03-29T10:41:54.575Z,59.84
2019-03-29T10:42:58.076Z,60.80
2019-03-29T10:43:54.561Z,59.84
2019-03-29T10:44:54.552Z,60.06
2019-03-29T10:45:54.544Z,59.01
2019-03-29T10:46:54.534Z,59.30
2019-03-29T10:47:54.536Z,58.15
2019-03-29T10:48:54.518Z,57.19
2019-03-29T10:49:54.513Z,56.90
2019-03-29T10:50:54.507Z,56.61
2019-03-29T10:51:54.498Z,56.99
2019-03-29T10:52:54.491Z,57.86
2019-03-29T10:53:54.489Z,57.48
2019-03-29T10:54:54.481Z,56.99
2019-03-29T10:55:54.468Z,57.19
2019-03-29T10:56:54.462Z,57.67
2019-03-29T10:57:54.455Z,58.05
2019-03-29T10:58:54.447Z,57.67
2019-03-29T10:59:54.439Z,57.76
2019-03-29T11:00:54.434Z,58.53
2019-03-29T11:01:54.429Z,57.28
2019-03-29T11:02:54.420Z,56.81
2019-03-29T11:03:54.410Z,56.42
2019-03-29T11:04:54.402Z,55.65
2019-03-29T11:05:54.395Z,56.04
2019-03-29T11:06:54.390Z,56.13
2019-03-29T11:07:54.387Z,56.04
2019-03-29T11:08:54.373Z,56.71
2019-03-29T11:09:54.371Z,56.42
2019-03-29T11:10:54.361Z,55.68
2019-03-29T11:11:54.354Z,56.52
2019-03-29T11:12:54.348Z,55.87
2019-03-29T11:13:56.662Z,56.07
2019-03-29T11:14:54.333Z,55.97
2019-03-29T11:15:54.324Z,54.91
2019-03-29T11:16:54.318Z,54.53
2019-03-29T11:17:54.309Z,55.40
2019-03-29T11:18:54.304Z,54.82
2019-03-29T11:19:54.299Z,54.63
2019-03-29T11:20:54.290Z,54.82
2019-03-29T11:21:54.283Z,54.37
2019-03-29T11:22:54.279Z,55.11
2019-03-29T11:23:54.270Z,55.49
2019-03-29T11:24:54.264Z,54.44
2019-03-29T11:25:54.256Z,54.05
2019-03-29T11:26:54.251Z,54.37
2019-03-29T11:27:54.246Z,53.60
2019-03-29T11:28:54.242Z,54.66
2019-03-29T11:29:54.230Z,52.64
2019-03-29T11:30:54.220Z,53.41
2019-03-29T11:31:54.215Z,54.17
2019-03-29T11:32:54.209Z,52.74
2019-03-29T11:33:54.204Z,52.36
2019-03-29T11:34:54.193Z,52.83
2019-03-29T11:35:54.187Z,52.45
2019-03-29T11:36:54.181Z,52.26
2019-03-29T11:37:54.179Z,52.64
2019-03-29T11:38:54.172Z,52.48
2019-03-29T11:39:54.162Z,51.71
2019-03-29T11:40:54.161Z,51.87
2019-03-29T11:41:54.152Z,51.59
2019-03-29T11:42:54.142Z,50.56
2019-03-29T11:43:54.136Z,48.90
2019-03-29T11:44:54.131Z,49.88
2019-03-29T11:45:54.124Z,49.50
2019-03-29T11:46:54.117Z,47.49
2019-03-29T11:48:07.422Z,47.87
2019-03-29T11:48:54.106Z,47.87
2019-03-29T11:49:54.101Z,48.54
2019-03-29T11:50:54.090Z,47.77
2019-03-29T11:51:54.089Z,47.30
2019-03-29T11:52:54.079Z,46.81
2019-03-29T11:53:54.082Z,46.53
2019-03-29T11:54:54.070Z,47.20
2019-03-29T11:55:54.060Z,47.30
2019-03-29T11:56:54.062Z,47.30
2019-03-29T11:57:55.851Z,45.67
2019-03-29T11:58:54.040Z,46.14
2019-03-29T11:59:54.037Z,47.68
2019-03-29T12:00:54.031Z,48.16
2019-03-29T12:01:54.023Z,48.25
2019-03-29T12:02:54.016Z,48.74
2019-03-29T12:03:54.010Z,48.54
2019-03-29T12:04:54.012Z,48.38
2019-03-29T12:05:54.002Z,48.44
2019-03-29T12:06:53.999Z,48.18
2019-03-29T12:07:53.988Z,47.68
2019-03-29T12:08:56.992Z,47.89
2019-03-29T12:09:53.978Z,47.03
2019-03-29T12:10:53.972Z,46.43
2019-03-29T12:11:53.964Z,45.95
2019-03-29T12:12:53.957Z,45.76
2019-03-29T12:13:53.958Z,47.39
2019-03-29T12:14:53.945Z,48.28
2019-03-29T12:15:53.941Z,48.18
2019-03-29T12:16:53.935Z,47.89
2019-03-29T12:17:53.974Z,47.71
2019-03-29T12:18:53.920Z,47.61
2019-03-29T12:19:53.915Z,47.80
2019-03-29T12:20:54.500Z,46.74
2019-03-29T12:21:53.905Z,46.17
2019-03-29T12:22:53.900Z,46.36
2019-03-29T12:23:53.892Z,46.17
2019-03-29T12:24:53.887Z,46.94
2019-03-29T12:25:53.878Z,47.41
2019-03-29T12:26:55.077Z,46.45
2019-03-29T12:27:53.868Z,46.36
2019-03-29T12:28:53.866Z,46.07
2019-03-29T12:29:53.856Z,46.65
2019-03-29T12:30:53.852Z,47.05
2019-03-29T12:31:53.847Z,46.58
2019-03-29T12:32:53.845Z,45.81
2019-03-29T12:33:53.836Z,45.30
2019-03-29T12:34:53.830Z,44.75
2019-03-29T12:35:53.827Z,46.48
2019-03-29T12:36:53.867Z,46.96
2019-03-29T12:37:53.811Z,45.14
2019-03-29T12:38:53.810Z,44.84
2019-03-29T12:39:53.804Z,45.32
2019-03-29T12:40:53.796Z,44.46
2019-03-29T12:41:53.793Z,44.08
2019-03-29T12:42:53.788Z,44.56
2019-03-29T12:43:55.869Z,44.54
2019-03-29T12:44:53.774Z,45.04
2019-03-29T12:45:53.766Z,45.71
2019-03-29T12:46:53.765Z,45.23
2019-03-29T12:47:53.760Z,45.90
2019-03-29T12:48:53.754Z,46.48
2019-03-29T12:49:53.745Z,45.71
2019-03-29T12:50:53.740Z,44.75
2019-03-29T12:51:53.735Z,43.40
2019-03-29T12:52:53.739Z,44.37
2019-03-29T12:53:53.723Z,44.94